Airfield :







YOU CAN JOIN US ON...

 
LOGIN :

Register | Disclaimer

   EN    FR    IT 

 









Legend :    VFR   Marginal VFR   IFR   Intensive IFR   Very Intensive IFR
Visi :
Ceiling :
>= 8 km
>= 3000ft
5 to 8 km
1000 to 3000 ft
1500m to 5 km
500 to 1000 ft
800 to 1500m
200 to 500 ft
< 800m
< 200 ft
Symbols :   Thunderstorms  Fog  Heavy snow  Heavy precipitations  Wind > 20 kt







- Airport Elevation : 228 ft


KFSO - Franklin County State

CURRENT METAR :
  • 221136Z AUTO 10006KT 10SM UP BKN023 OVC035 02/01 A2958 RMK AO2 T00150009

EXPIRED METARs :
  • 221115Z AUTO 11004KT 10SM UP SCT032 BKN038 OVC060 02/01 A2959 RMK AO2 T00150007
  • 221056Z AUTO 11006KT 10SM UP SCT041 BKN060 OVC070 02/01 A2959 RMK AO2 T00150007
  • 221035Z AUTO 11005KT 10SM BKN048 OVC060 02/01 A2959 RMK AO2 T00150010
  • 221016Z AUTO 11006KT 10SM OVC060 01/01 A2960 RMK AO2 T00120012
  • 220956Z AUTO 12005KT 10SM SCT050 OVC060 01/01 A2960 RMK AO2 T00100010
  • 220936Z AUTO 13004KT 10SM BKN060 OVC095 01/01 A2961 RMK AO2 T00100010
  • 220916Z AUTO 00000KT 10SM BKN060 BKN070 OVC095 01/01 A2962 RMK AO2 T00080008
  • 220856Z AUTO 00000KT 10SM BKN060 OVC070 01/01 A2964 RMK AO2 T00100010

TAF N/A
KZBW FIR / North America



MET'MAP, your aeronautical weather chart ! - Copyright ORBIFLY December 2007 - Disclaimer

ORBIFLY MET'MAP TEAM :

Programming & Development : Alexandra Zaïnal
Concept & Development : Baudouin d'Aumeries
Co-Development & Prog : Marc-Olivier Méhu
Technical & hardware support : Manuel Goepfert

Contact : metmap@orbifly.com




SOURCES & CREDITS :

   NOAA